Погода Пихтеньна 2 недели

Тверская область, Россия

22 мая-04 июня
  • 22мая
    Сегодня
    +7°
    +23°
    Ясно и безоблачно
    ВремяПогодаТемператураВлажностьДавлениеВетер, м/сВероятность осадков
    00:00Ясно и безоблачно+9°C65 %747 мм2.7 м/с2 %
    03:00Ясно и безоблачно+8°C67 %747 мм3.0 м/с2 %
    06:00Ясно и безоблачно+8°C72 %748 мм3.0 м/с2 %
    09:00Ясно и безоблачно+16°C57 %749 мм2.9 м/с2 %
    12:00Ясно и безоблачно+21°C40 %749 мм3.4 м/с2 %
    15:00Ясно и безоблачно+22°C36 %749 мм3.7 м/с2 %
    18:00Ясно и безоблачно+22°C38 %748 мм3.9 м/с2 %
    21:00Ясно и безоблачно+17°C56 %749 мм2.9 м/с2 %
  • 23мая
    Четверг
    +8°
    +22°
    Ясно и безоблачно
    ВремяПогодаТемператураВлажностьДавлениеВетер, м/сВероятность осадков
    00:00Ясно и безоблачно+11°C62 %749 мм3.3 м/с2 %
    03:00Ясно и безоблачно+8°C64 %750 мм3.3 м/с2 %
    06:00Ясно и безоблачно+9°C68 %751 мм3.1 м/с2 %
    09:00Ясно и безоблачно+16°C53 %752 мм2.8 м/с2 %
    12:00Ясно и безоблачно+20°C38 %753 мм4.0 м/с2 %
    15:00Ясно и безоблачно+21°C35 %753 мм3.8 м/с2 %
    18:00Ясно и безоблачно+21°C38 %752 мм3.8 м/с2 %
    21:00Ясно и безоблачно+16°C57 %752 мм2.2 м/с2 %
  • 24мая
    Пятница
    +7°
    +22°
    Ясно и безоблачно
    ВремяПогодаТемператураВлажностьДавлениеВетер, м/сВероятность осадков
    00:00Ясно и безоблачно+10°C65 %753 мм2.7 м/с2 %
    03:00Ясно и безоблачно+9°C71 %754 мм2.4 м/с2 %
    06:00Ясно и безоблачно+9°C69 %755 мм2.4 м/с2 %
    09:00Ясно и безоблачно+16°C48 %756 мм2.9 м/с2 %
    12:00Ясно и безоблачно+20°C35 %756 мм4.4 м/с2 %
    15:00Ясно и безоблачно+21°C35 %755 мм4.4 м/с2 %
    18:00Ясно и безоблачно+21°C38 %754 мм3.9 м/с2 %
    21:00Ясно и безоблачно+16°C50 %753 мм3.1 м/с2 %
  • 25мая
    Суббота
    +9°
    +24°
    Ясно и безоблачно
    ВремяПогодаТемператураВлажностьДавлениеВетер, м/сВероятность осадков
    00:00Ясно и безоблачно+11°C57 %753 мм3.2 м/с2 %
    03:00Ясно и безоблачно+8°C68 %753 мм2.6 м/с2 %
    06:00Ясно и безоблачно+9°C74 %753 мм2.8 м/с2 %
    09:00Ясно и безоблачно+17°C56 %753 мм2.9 м/с2 %
    12:00Ясно и безоблачно+21°C45 %753 мм3.1 м/с2 %
    15:00Ясно и безоблачно+23°C39 %752 мм3.5 м/с2 %
    18:00Ясно и безоблачно+24°C41 %750 мм3.0 м/с4 %
    21:00Ясно и безоблачно+17°C64 %750 мм2.2 м/с2 %
  • 26мая
    Воскресенье
    +11°
    +25°
    Ясно и безоблачно
    ВремяПогодаТемператураВлажностьДавлениеВетер, м/сВероятность осадков
    00:00Ясно и безоблачно+12°C77 %750 мм2.2 м/с2 %
    03:00Ясно и безоблачно+10°C81 %750 мм2.3 м/с2 %
    06:00Ясно и безоблачно+12°C79 %750 мм2.3 м/с4 %
    09:00Ясно и безоблачно+20°C60 %751 мм1.7 м/с8 %
    12:00Ясно и безоблачно+24°C42 %751 мм1.5 м/с16 %
    15:00Ясно и безоблачно+25°C37 %751 мм1.6 м/с26 %
    18:00Практически безоблачно+25°C38 %750 мм1.3 м/с33 %
    21:00Ясно и безоблачно+18°C68 %750 мм2.1 м/с14 %
Мы используем cookies
Соглашаюсь